Disclaimer

Please do not use the information listed here in-flight or in-navigation, as they are not provided to us by the airports but are provided by volunteers, so they might be outdated.

Search


Regions


Airport information page

No radio frequency information is available.

Airport informations:
Latitude: 37° 44' 48.83" N
Longitude: 112° 37' 42.34" E
Elevation: 2575 feet - 785 meters
Operating hours: Remarks
Operating agency: Civil government, landing fees and diplomatic clearance may be required
Timezone: UTC+8
Fuel: N/A

Runway information:
13/31 - 10500 x 148 feet< - >3200 x 45 meters

Recent METARs:
ZBYN 211630Z VRB01MPS 8000 NSC M03/M13 Q1027 NOSIG
ZBYN 211630Z VRB01MPS 8000 NSC M03/M13 Q1027 NOSIG
ZBYN 211730Z 10002MPS 6000 NSC M06/M13 Q1027 NOSIG

Airport on the map: